Sea Imp Xi — CFFC — position and weather

sailwx.info

Track history (hours):
 
Tides and Currents Weather Stations Pressure Air Temp Water Temp Dewpoint Dewpoint Depression Visibility Wind Speed Wind Dir Waves Ship Positions

Sea Imp Xi

Last reported at 2018-Jun-23 09:29 UTC. Time now 2018-Jun-24 07:23 UTC.
Position N 49°12' W 123°04'.

Length 16 m; draft 3.6 m.

Type: Tug. MMSI: 316034963.

Date/timePositionNaut miles runAvg speedWind from/ knotsBaromVisibWave heightAir tempDewpointWater temp
2018-Jun-23 09:29N 49°12' W 123°04'0 0.7
2018-Jun-23 08:58N 49°12' W 123°04'1 1.4
2018-Jun-23 08:30N 49°12' W 123°03'3 5.4
2018-Jun-23 08:00N 49°11' W 122°60'2 4.8
2018-Jun-23 07:30N 49°12' W 122°56'2 4.3
2018-Jun-23 07:00N 49°13' W 122°53'4 6.9
2018-Jun-23 06:30N 49°13' W 122°48'3 5.6
2018-Jun-23 06:00N 49°15' W 122°44'1 2.0
2018-Jun-23 05:28N 49°15' W 122°43'2 4.1
2018-Jun-23 05:00N 49°17' W 122°42'1 2.9
2018-Jun-23 04:30N 49°17' W 122°40'4 6.7
2018-Jun-23 03:58N 49°15' W 122°44'2 4.4
2018-Jun-23 03:31N 49°14' W 122°46'3 6.7
2018-Jun-23 03:00N 49°13' W 122°51'3 6.0
2018-Jun-23 02:30N 49°12' W 122°55'3 6.0
2018-Jun-23 01:59N 49°12' W 123°00'3 6.8
2018-Jun-23 01:30N 49°12' W 123°05'2 3.7
2018-Jun-23 00:57N 49°12' W 123°08'2 4.1
2018-Jun-23 00:30N 49°13' W 123°11'3 5.8
2018-Jun-23 00:00N 49°14' W 123°15'3 5.1
2018-Jun-22 23:30N 49°16' W 123°18'2 3.9
2018-Jun-22 23:00N 49°16' W 123°21'3 5.3
2018-Jun-22 22:28N 49°16' W 123°17'2 4.9
2018-Jun-22 22:00N 49°14' W 123°14'2 4.8
2018-Jun-22 21:30N 49°13' W 123°11'2 3.7
2018-Jun-22 20:59N 49°12' W 123°08'0 0.2
2018-Jun-22 20:28N 49°12' W 123°08'2 4.4
2018-Jun-22 20:00N 49°12' W 123°05'1 2.0
2018-Jun-22 19:29N 49°12' W 123°04'0 0.0
2018-Jun-22 18:59N 49°12' W 123°04'0 0.0
2018-Jun-22 18:29N 49°12' W 123°04'0 0.0
2018-Jun-22 17:59N 49°12' W 123°04'0 0.0
2018-Jun-22 17:29N 49°12' W 123°04'0 0.0
2018-Jun-22 16:59N 49°12' W 123°04'0 0.0
2018-Jun-22 16:29N 49°12' W 123°04'0 0.0
2018-Jun-22 15:59N 49°12' W 123°04'0 0.0
2018-Jun-22 15:29N 49°12' W 123°04'0 0.0
2018-Jun-22 14:59N 49°12' W 123°04'0 0.0
2018-Jun-22 14:29N 49°12' W 123°04'0 0.0
2018-Jun-22 13:59N 49°12' W 123°04'0 0.0
2018-Jun-22 13:29N 49°12' W 123°04'0 0.0
2018-Jun-22 12:59N 49°12' W 123°04'0 0.0
2018-Jun-22 12:29N 49°12' W 123°04'0 0.0
2018-Jun-22 11:59N 49°12' W 123°04'0 0.0
2018-Jun-22 11:29N 49°12' W 123°04'0 0.0
2018-Jun-22 10:59N 49°12' W 123°04'0 0.0
2018-Jun-22 10:29N 49°12' W 123°04'0 0.2
2018-Jun-22 10:00N 49°12' W 123°04'2 5.0
2018-Jun-22 09:30N 49°12' W 123°00'3 6.2
2018-Jun-22 09:00N 49°12' W 122°55'0 1.0
2018-Jun-22 08:30N 49°12' W 122°55'1 2.4
2018-Jun-22 07:59N 49°13' W 122°54'1 2.2
2018-Jun-22 07:30N 49°13' W 122°52'4 6.7
2018-Jun-22 06:57N 49°13' W 122°47'4 8.6
2018-Jun-22 06:29N 49°12' W 122°41'4 7.6
2018-Jun-22 06:00N 49°11' W 122°35'5 0.8
2018-Jun-21 23:28N 49°10' W 122°27'4 7.1
2018-Jun-21 22:58N 49°11' W 122°33'3 6.7
2018-Jun-21 22:28N 49°13' W 122°37'2 3.4
2018-Jun-21 21:52N 49°12' W 122°40'0 0.2
2018-Jun-21 21:30N 49°12' W 122°40'1 2.8
2018-Jun-21 21:00N 49°12' W 122°42'2 4.0
2018-Jun-21 20:30N 49°13' W 122°45'2 4.1
2018-Jun-21 20:00N 49°13' W 122°48'2 4.3
2018-Jun-21 19:30N 49°13' W 122°51'2 4.6
2018-Jun-21 19:00N 49°12' W 122°54'3 7.0
2018-Jun-21 18:30N 49°11' W 122°59'3 6.3
2018-Jun-21 17:58N 49°12' W 123°04'0 0.0
2018-Jun-21 17:28N 49°12' W 123°04'0 0.0
2018-Jun-21 16:58N 49°12' W 123°04'0 0.0
2018-Jun-21 16:28N 49°12' W 123°04'0 0.0
2018-Jun-21 15:58N 49°12' W 123°04'0 0.0
2018-Jun-21 15:28N 49°12' W 123°04'0 0.0
2018-Jun-21 14:58N 49°12' W 123°04'0 0.0
2018-Jun-21 14:28N 49°12' W 123°04'0 0.0
2018-Jun-21 13:58N 49°12' W 123°04'0 0.0
2018-Jun-21 13:28N 49°12' W 123°04'0 0.0
2018-Jun-21 12:58N 49°12' W 123°04'0 0.0
2018-Jun-21 12:28N 49°12' W 123°04'0 0.0
2018-Jun-21 11:58N 49°12' W 123°04'0 0.0
2018-Jun-21 11:25N 49°12' W 123°04'0 0.0
2018-Jun-21 10:55N 49°12' W 123°04'0 0.0
2018-Jun-21 10:28N 49°12' W 123°04'0 0.0
2018-Jun-21 09:58N 49°12' W 123°04'0 0.0
2018-Jun-21 09:25N 49°12' W 123°04'0 0.0
2018-Jun-21 08:52N 49°12' W 123°04'0 0.0
2018-Jun-21 08:25N 49°12' W 123°04'0 0.0
2018-Jun-21 07:58N 49°12' W 123°04'0 0.0
2018-Jun-21 07:28N 49°12' W 123°04'0 0.0
2018-Jun-21 06:58N 49°12' W 123°04'0 0.0
2018-Jun-21 06:28N 49°12' W 123°04'0 0.0
2018-Jun-21 05:58N 49°12' W 123°04'0 0.0
2018-Jun-21 05:28N 49°12' W 123°04'0 0.0
2018-Jun-21 04:58N 49°12' W 123°04'0 0.0
2018-Jun-21 04:28N 49°12' W 123°04'0 0.0
2018-Jun-21 03:58N 49°12' W 123°04'0 0.0
2018-Jun-21 03:28N 49°12' W 123°04'0 0.0
2018-Jun-21 02:46N 49°12' W 123°04'0 0.0
2018-Jun-21 02:28N 49°12' W 123°04'0 0.0
2018-Jun-21 01:58N 49°12' W 123°04'0 0.0
2018-Jun-21 01:28N 49°12' W 123°04'1 1.5
2018-Jun-21 00:59N 49°12' W 123°05'0 0.7
2018-Jun-21 00:28N 49°12' W 123°05'2 3.8
2018-Jun-20 23:58N 49°12' W 123°03'4 7.8
2018-Jun-20 23:30N 49°12' W 122°57'0 0.9
2018-Jun-20 23:00N 49°12' W 122°57'1 2.6
2018-Jun-20 22:29N 49°11' W 122°58'2 4.6
2018-Jun-20 22:00N 49°12' W 123°01'2 4.1
2018-Jun-20 21:30N 49°12' W 123°04'0 0.0
2018-Jun-20 20:59N 49°12' W 123°04'0 0.7
2018-Jun-20 20:30N 49°12' W 123°04'3 6.4
2018-Jun-20 20:00N 49°11' W 122°59'3 6.5
2018-Jun-20 19:30N 49°12' W 122°55'0 0.0
2018-Jun-20 18:57N 49°12' W 122°55'0 0.0
2018-Jun-20 18:27N 49°12' W 122°55'0 0.0
2018-Jun-20 18:00N 49°12' W 122°55'0 0.0
2018-Jun-20 17:30N 49°12' W 122°55'0 0.0
2018-Jun-20 17:00N 49°12' W 122°55'1 2.9
2018-Jun-20 16:30N 49°12' W 122°57'2 3.7
2018-Jun-20 15:59N 49°11' W 122°59'0 0.0
2018-Jun-20 15:30N 49°11' W 122°59'3 5.2
2018-Jun-20 15:00N 49°12' W 123°03'1 1.2
2018-Jun-20 14:28N 49°12' W 123°04'0 0.0
2018-Jun-20 13:58N 49°12' W 123°04'0 0.0
2018-Jun-20 13:24N 49°12' W 123°04'1 2.4
2018-Jun-20 12:58N 49°12' W 123°05'0 0.0
2018-Jun-20 12:28N 49°12' W 123°05'0 0.0
2018-Jun-20 11:58N 49°12' W 123°05'0 0.5
2018-Jun-20 11:30N 49°12' W 123°05'4 7.1
2018-Jun-20 11:00N 49°11' W 122°60'3 6.1
2018-Jun-20 10:30N 49°12' W 122°55'2 3.5
2018-Jun-20 09:59N 49°13' W 122°53'0 0.2
2018-Jun-20 09:29N 49°13' W 122°53'0 0.3
2018-Jun-20 09:00N 49°13' W 122°53'1 1.3
2018-Jun-20 08:30N 49°12' W 122°54'1 1.0
2018-Jun-20 07:44N 49°13' W 122°53'0 0.0
2018-Jun-20 07:26N 49°13' W 122°53'1 2.8
2018-Jun-20 07:00N 49°13' W 122°51'4 8.6
2018-Jun-20 06:30N 49°14' W 122°45'1 2.4
2018-Jun-20 06:00N 49°15' W 122°43'4 7.4
2018-Jun-20 05:30N 49°18' W 122°40'1 2.1
2018-Jun-20 04:56N 49°19' W 122°40'2 3.8
2018-Jun-20 04:30N 49°17' W 122°40'4 7.2
2018-Jun-20 03:58N 49°15' W 122°44'3 5.5
2018-Jun-20 03:29N 49°13' W 122°47'3 5.6
2018-Jun-20 03:00N 49°13' W 122°52'3 5.0
2018-Jun-20 02:30N 49°12' W 122°55'2 4.9
2018-Jun-20 02:00N 49°10' W 122°57'3 5.3
2018-Jun-20 01:30N 49°09' W 123°01'2 4.8
2018-Jun-20 01:00N 49°08' W 123°04'2 3.7
2018-Jun-20 00:30N 49°09' W 123°02'5 9.4
2018-Jun-20 00:00N 49°11' W 122°55'5 9.0
2018-Jun-19 23:28N 49°13' W 122°48'511.0
2018-Jun-19 22:58N 49°12' W 122°40'6 1.9
2018-Jun-19 20:03N 49°10' W 122°32'0 5.8
2018-Jun-19 19:59N 49°10' W 122°32'3 5.4
2018-Jun-19 19:30N 49°12' W 122°36'3 4.9
2018-Jun-19 18:58N 49°12' W 122°40'3 5.6
2018-Jun-19 18:30N 49°13' W 122°43'3 5.8
2018-Jun-19 18:00N 49°13' W 122°48'3 6.0
2018-Jun-19 17:30N 49°13' W 122°52'3 5.2
2018-Jun-19 17:00N 49°12' W 122°56'3 5.3
2018-Jun-19 16:30N 49°11' W 123°00'3 6.5
2018-Jun-19 16:00N 49°12' W 123°05'3 5.1
2018-Jun-19 15:26N 49°12' W 123°09'3 6.2
2018-Jun-19 15:00N 49°14' W 123°13'3 6.6
2018-Jun-19 14:29N 49°16' W 123°17'4 7.5
2018-Jun-19 13:59N 49°18' W 123°13'4 8.1
2018-Jun-19 13:30N 49°18' W 123°07'1 1.5
2018-Jun-19 12:58N 49°17' W 123°06'1 1.1
2018-Jun-19 12:30N 49°18' W 123°06'3 6.8
2018-Jun-19 12:00N 49°19' W 123°11'4 7.0
2018-Jun-19 11:30N 49°19' W 123°17'4 6.5
2018-Jun-19 10:58N 49°18' W 123°22'3 6.1
2018-Jun-19 10:29N 49°17' W 123°26'3 6.2
2018-Jun-19 10:00N 49°16' W 123°31'6 0.9
2018-Jun-19 03:06N 49°17' W 123°21'210.1
2018-Jun-19 02:52N 49°16' W 123°18'3 9.1
2018-Jun-19 02:29N 49°14' W 123°14'7 0.1
2018-Jun-17 05:15N 49°12' W 123°04'0 0.0
2018-Jun-17 05:01N 49°12' W 123°04'0 0.0
2018-Jun-17 04:30N 49°12' W 123°04'2 3.2
2018-Jun-17 04:00N 49°12' W 123°06'3 6.9
2018-Jun-17 03:30N 49°13' W 123°11'4 8.0
2018-Jun-17 02:58N 49°16' W 123°17'4 7.6
2018-Jun-17 02:30N 49°17' W 123°22'30 7.3
2018-Jun-16 22:21N 49°32' W 124°01'4 8.0
2018-Jun-16 21:50N 49°35' W 124°07'3 8.4
2018-Jun-16 21:28N 49°37' W 124°10'4 8.8
2018-Jun-16 21:00N 49°39' W 124°15'4 9.0
2018-Jun-16 20:30N 49°42' W 124°20'4 8.5
2018-Jun-16 20:01N 49°45' W 124°25'4 8.1
2018-Jun-16 19:31N 49°47' W 124°31'4 7.5
2018-Jun-16 19:00N 49°51' W 124°33'2 3.1
2018-Jun-16 18:31N 49°52' W 124°33'0 0.0
2018-Jun-16 18:01N 49°52' W 124°33'0 0.0
2018-Jun-16 17:31N 49°52' W 124°33'0 0.0
2018-Jun-16 17:00N 49°52' W 124°33'0 0.0
2018-Jun-16 16:31N 49°52' W 124°33'0 0.0
2018-Jun-16 15:59N 49°52' W 124°33'0 0.0
2018-Jun-16 15:28N 49°52' W 124°33'0 0.0
2018-Jun-16 14:59N 49°52' W 124°33'0 0.0
2018-Jun-16 14:31N 49°52' W 124°33'0 0.0
2018-Jun-16 14:00N 49°52' W 124°33'0 0.0
2018-Jun-16 13:28N 49°52' W 124°33'0 0.8
2018-Jun-16 13:00N 49°52' W 124°33'3 5.8
2018-Jun-16 12:30N 49°49' W 124°32'4 7.4
2018-Jun-16 12:00N 49°46' W 124°28'4 7.7
2018-Jun-16 11:31N 49°44' W 124°23'4 7.4
2018-Jun-16 11:00N 49°42' W 124°19'4 7.5
2018-Jun-16 10:30N 49°39' W 124°15'4 7.2
2018-Jun-16 09:58N 49°36' W 124°11'4 7.2
2018-Jun-16 09:27N 49°33' W 124°08'3 7.3
2018-Jun-16 09:00N 49°31' W 124°04'25 7.4
2018-Jun-16 05:37N 49°20' W 123°30'1 7.4
2018-Jun-16 05:30N 49°19' W 123°29'4 7.1
2018-Jun-16 04:57N 49°18' W 123°23'3 6.8
2018-Jun-16 04:30N 49°16' W 123°19'3 7.1
2018-Jun-16 04:00N 49°14' W 123°15'4 7.5
2018-Jun-16 03:30N 49°13' W 123°10'3 6.8
2018-Jun-16 03:00N 49°12' W 123°04'0 0.6
2018-Jun-16 02:30N 49°12' W 123°04'0 0.1
2018-Jun-16 02:00N 49°12' W 123°04'0 0.1
2018-Jun-16 01:30N 49°12' W 123°04'0 0.1
2018-Jun-16 01:00N 49°12' W 123°04'0 0.0
2018-Jun-16 00:30N 49°12' W 123°04'0 0.1
2018-Jun-16 00:00N 49°12' W 123°04'0 0.1
2018-Jun-15 23:30N 49°12' W 123°04'0 0.1
2018-Jun-15 23:00N 49°12' W 123°04'0 0.1
2018-Jun-15 22:30N 49°12' W 123°04'0 0.0
2018-Jun-15 22:00N 49°12' W 123°04'0 0.0
2018-Jun-15 21:30N 49°12' W 123°04'0 0.1
2018-Jun-15 21:00N 49°12' W 123°04'1 2.4
2018-Jun-15 20:30N 49°12' W 123°06'2 3.6
2018-Jun-15 20:00N 49°12' W 123°08'0 0.1
2018-Jun-15 19:14N 49°12' W 123°08'1 5.6
2018-Jun-15 18:59N 49°13' W 123°10'5 4.2
2018-Jun-15 17:48N 49°15' W 123°17'2 6.2
2018-Jun-15 17:29N 49°16' W 123°20'2 3.2
2018-Jun-15 17:00N 49°17' W 123°22'5 9.9
2018-Jun-15 16:29N 49°14' W 123°15'4 9.2
2018-Jun-15 16:00N 49°12' W 123°09'3 5.1
2018-Jun-15 15:30N 49°12' W 123°05'1 1.2
2018-Jun-15 15:00N 49°12' W 123°04'0 0.5
2018-Jun-15 14:30N 49°12' W 123°04'0 0.0
2018-Jun-15 14:01N 49°12' W 123°04'0 0.0
2018-Jun-15 13:31N 49°12' W 123°04'0 0.0
2018-Jun-15 13:00N 49°12' W 123°04'1 2.3
2018-Jun-15 12:29N 49°12' W 123°06'3 7.1
2018-Jun-15 12:00N 49°13' W 123°11'5 8.0
2018-Jun-15 11:25N 49°15' W 123°17'3 7.0
2018-Jun-15 10:58N 49°18' W 123°14'4 8.5
2018-Jun-15 10:30N 49°19' W 123°08'2 3.3
2018-Jun-15 10:00N 49°19' W 123°06'2 4.3
2018-Jun-15 09:30N 49°19' W 123°09'4 7.2
2018-Jun-15 09:00N 49°18' W 123°15'3 5.8
2018-Jun-15 08:30N 49°16' W 123°17'4 8.1
2018-Jun-15 07:57N 49°13' W 123°11'4 8.1
2018-Jun-15 07:31N 49°12' W 123°06'4 8.2
2018-Jun-15 07:00N 49°11' W 122°60'2 4.5
2018-Jun-15 06:30N 49°12' W 122°57'2 4.5
2018-Jun-15 06:00N 49°11' W 122°60'3 5.5
2018-Jun-15 05:30N 49°12' W 123°04'0 0.0
2018-Jun-15 05:00N 49°12' W 123°04'3 5.6
2018-Jun-15 04:30N 49°12' W 123°08'2 3.4
2018-Jun-15 04:00N 49°13' W 123°10'4 7.2
2018-Jun-15 03:29N 49°15' W 123°15'4 7.5
2018-Jun-15 03:00N 49°15' W 123°21'2 4.1
2018-Jun-15 02:30N 49°15' W 123°18'2 3.4
2018-Jun-15 01:54N 49°14' W 123°15'2 4.3
2018-Jun-15 01:30N 49°13' W 123°13'2 4.2
2018-Jun-15 01:00N 49°13' W 123°10'1 2.0
2018-Jun-15 00:30N 49°12' W 123°08'2 3.4
2018-Jun-15 00:00N 49°13' W 123°11'5 9.0
2018-Jun-14 23:28N 49°15' W 123°17'510.1
2018-Jun-14 23:00N 49°11' W 123°19'5 9.4
2018-Jun-14 22:30N 49°06' W 123°20'510.0
2018-Jun-14 21:58N 49°01' W 123°19'7 9.5
2018-Jun-14 21:15N 48°54' W 123°18'210.0
2018-Jun-14 21:00N 48°52' W 123°19'4 7.6
2018-Jun-14 20:30N 48°48' W 123°21'5 9.0
2018-Jun-14 20:00N 48°43' W 123°21'4 8.5
2018-Jun-14 19:30N 48°39' W 123°21'4 7.4
2018-Jun-14 19:00N 48°36' W 123°19'4 8.7
2018-Jun-14 18:30N 48°32' W 123°17'4 8.1
2018-Jun-14 18:00N 48°28' W 123°15'4 7.6
2018-Jun-14 17:30N 48°24' W 123°17'6 1.7
2018-Jun-14 13:49N 48°25' W 123°27'1 1.9
2018-Jun-14 13:30N 48°25' W 123°27'2 3.4
2018-Jun-14 13:00N 48°24' W 123°25'2 4.1
2018-Jun-14 12:31N 48°24' W 123°22'2 4.2
2018-Jun-14 12:00N 48°23' W 123°19'2 3.8
2018-Jun-14 11:30N 48°24' W 123°16'2 3.9
2018-Jun-14 11:00N 48°25' W 123°14'2 3.9
2018-Jun-14 10:30N 48°27' W 123°13'3 5.3
2018-Jun-14 10:00N 48°29' W 123°14'3 5.3
2018-Jun-14 09:30N 48°32' W 123°16'3 5.1
2018-Jun-14 09:00N 48°34' W 123°18'3 5.2
2018-Jun-14 08:30N 48°36' W 123°20'3 5.4
2018-Jun-14 08:00N 48°39' W 123°22'3 6.0
2018-Jun-14 07:30N 48°42' W 123°21'3 6.7
2018-Jun-14 07:00N 48°45' W 123°21'4 7.4
2018-Jun-14 06:29N 48°49' W 123°21'3 6.6
2018-Jun-14 06:00N 48°52' W 123°19'6 7.7
2018-Jun-14 05:16N 48°57' W 123°18'3 8.9
2018-Jun-14 04:53N 49°01' W 123°19'3 8.8
2018-Jun-14 04:29N 49°04' W 123°19'4 7.8
2018-Jun-14 04:00N 49°07' W 123°16'4 8.7
2018-Jun-14 03:30N 49°07' W 123°09'4 8.0
2018-Jun-14 03:00N 49°08' W 123°04'4 7.9
2018-Jun-14 02:30N 49°09' W 122°58'3 5.6
2018-Jun-14 02:00N 49°12' W 122°56'1 1.0
2018-Jun-14 01:30N 49°12' W 122°57'0 0.0
2018-Jun-14 01:00N 49°12' W 122°57'0 0.1
2018-Jun-14 00:30N 49°12' W 122°57'0 0.1
2018-Jun-14 00:00N 49°12' W 122°56'0 0.1
2018-Jun-13 23:30N 49°12' W 122°57'0 0.2
2018-Jun-13 23:00N 49°12' W 122°56'0 0.2
2018-Jun-13 22:30N 49°12' W 122°57'0 0.0
2018-Jun-13 22:00N 49°12' W 122°57'0 0.1
2018-Jun-13 21:30N 49°12' W 122°57'0 0.4
2018-Jun-13 21:00N 49°12' W 122°57'0 0.5
2018-Jun-13 20:30N 49°12' W 122°56'0 0.2
2018-Jun-13 20:00N 49°12' W 122°57'0 0.2
2018-Jun-13 19:30N 49°12' W 122°56'0 0.0
2018-Jun-13 19:00N 49°12' W 122°56'0 0.0
2018-Jun-13 18:28N 49°12' W 122°56'0 0.0
2018-Jun-13 18:00N 49°12' W 122°56'0 0.0
2018-Jun-13 17:30N 49°12' W 122°56'0 0.0
2018-Jun-13 17:00N 49°12' W 122°56'1 2.1
2018-Jun-13 16:30N 49°12' W 122°55'0 0.7
2018-Jun-13 16:00N 49°12' W 122°54'0 0.0
2018-Jun-13 15:30N 49°12' W 122°54'0 0.0
2018-Jun-13 15:00N 49°12' W 122°54'0 0.0
2018-Jun-13 14:30N 49°12' W 122°54'0 0.0
2018-Jun-13 14:00N 49°12' W 122°54'0 0.0
2018-Jun-13 13:30N 49°12' W 122°54'0 0.0
2018-Jun-13 13:00N 49°12' W 122°54'0 0.0
2018-Jun-13 12:30N 49°12' W 122°54'0 0.0
2018-Jun-13 12:00N 49°12' W 122°54'0 0.0
2018-Jun-13 11:30N 49°12' W 122°54'0 0.0
2018-Jun-13 11:00N 49°12' W 122°54'0 0.0
2018-Jun-13 10:30N 49°12' W 122°54'0 0.0
2018-Jun-13 10:00N 49°12' W 122°54'0 0.0
2018-Jun-13 09:30N 49°12' W 122°54'  
Track history (hours):
 
Tides and Currents Weather Stations Pressure Air Temp Water Temp Dewpoint Dewpoint Depression Visibility Wind Speed Wind Dir Waves Ship Positions

Sea Imp Xi

Last reported at 2018-Jun-23 09:29 UTC. Time now 2018-Jun-24 07:23 UTC.
Position N 49°12' W 123°04'.

Length 16 m; draft 3.6 m.

Type: Tug. MMSI: 316034963.

Date/timePositionNaut miles runAvg speedWind from/ knotsBaromVisibWave heightAir tempDewpointWater temp
2018-Jun-23 09:29N 49°12' W 123°04'0 0.7
2018-Jun-23 08:58N 49°12' W 123°04'1 1.4
2018-Jun-23 08:30N 49°12' W 123°03'3 5.4
2018-Jun-23 08:00N 49°11' W 122°60'2 4.8
2018-Jun-23 07:30N 49°12' W 122°56'2 4.3
2018-Jun-23 07:00N 49°13' W 122°53'4 6.9
2018-Jun-23 06:30N 49°13' W 122°48'3 5.6
2018-Jun-23 06:00N 49°15' W 122°44'1 2.0
2018-Jun-23 05:28N 49°15' W 122°43'2 4.1
2018-Jun-23 05:00N 49°17' W 122°42'1 2.9
2018-Jun-23 04:30N 49°17' W 122°40'4 6.7
2018-Jun-23 03:58N 49°15' W 122°44'2 4.4
2018-Jun-23 03:31N 49°14' W 122°46'3 6.7
2018-Jun-23 03:00N 49°13' W 122°51'3 6.0
2018-Jun-23 02:30N 49°12' W 122°55'3 6.0
2018-Jun-23 01:59N 49°12' W 123°00'3 6.8
2018-Jun-23 01:30N 49°12' W 123°05'2 3.7
2018-Jun-23 00:57N 49°12' W 123°08'2 4.1
2018-Jun-23 00:30N 49°13' W 123°11'3 5.8
2018-Jun-23 00:00N 49°14' W 123°15'3 5.1
2018-Jun-22 23:30N 49°16' W 123°18'2 3.9
2018-Jun-22 23:00N 49°16' W 123°21'3 5.3
2018-Jun-22 22:28N 49°16' W 123°17'2 4.9
2018-Jun-22 22:00N 49°14' W 123°14'2 4.8
2018-Jun-22 21:30N 49°13' W 123°11'2 3.7
2018-Jun-22 20:59N 49°12' W 123°08'0 0.2
2018-Jun-22 20:28N 49°12' W 123°08'2 4.4
2018-Jun-22 20:00N 49°12' W 123°05'1 2.0
2018-Jun-22 19:29N 49°12' W 123°04'0 0.0
2018-Jun-22 18:59N 49°12' W 123°04'0 0.0
2018-Jun-22 18:29N 49°12' W 123°04'0 0.0
2018-Jun-22 17:59N 49°12' W 123°04'0 0.0
2018-Jun-22 17:29N 49°12' W 123°04'0 0.0
2018-Jun-22 16:59N 49°12' W 123°04'0 0.0
2018-Jun-22 16:29N 49°12' W 123°04'0 0.0
2018-Jun-22 15:59N 49°12' W 123°04'0 0.0
2018-Jun-22 15:29N 49°12' W 123°04'0 0.0
2018-Jun-22 14:59N 49°12' W 123°04'0 0.0
2018-Jun-22 14:29N 49°12' W 123°04'0 0.0
2018-Jun-22 13:59N 49°12' W 123°04'0 0.0
2018-Jun-22 13:29N 49°12' W 123°04'0 0.0
2018-Jun-22 12:59N 49°12' W 123°04'0 0.0
2018-Jun-22 12:29N 49°12' W 123°04'0 0.0
2018-Jun-22 11:59N 49°12' W 123°04'0 0.0
2018-Jun-22 11:29N 49°12' W 123°04'0 0.0
2018-Jun-22 10:59N 49°12' W 123°04'0 0.0
2018-Jun-22 10:29N 49°12' W 123°04'0 0.2
2018-Jun-22 10:00N 49°12' W 123°04'2 5.0
2018-Jun-22 09:30N 49°12' W 123°00'3 6.2
2018-Jun-22 09:00N 49°12' W 122°55'0 1.0
2018-Jun-22 08:30N 49°12' W 122°55'1 2.4
2018-Jun-22 07:59N 49°13' W 122°54'1 2.2
2018-Jun-22 07:30N 49°13' W 122°52'4 6.7
2018-Jun-22 06:57N 49°13' W 122°47'4 8.6
2018-Jun-22 06:29N 49°12' W 122°41'4 7.6
2018-Jun-22 06:00N 49°11' W 122°35'5 0.8
2018-Jun-21 23:28N 49°10' W 122°27'4 7.1
2018-Jun-21 22:58N 49°11' W 122°33'3 6.7
2018-Jun-21 22:28N 49°13' W 122°37'2 3.4
2018-Jun-21 21:52N 49°12' W 122°40'0 0.2
2018-Jun-21 21:30N 49°12' W 122°40'1 2.8
2018-Jun-21 21:00N 49°12' W 122°42'2 4.0
2018-Jun-21 20:30N 49°13' W 122°45'2 4.1
2018-Jun-21 20:00N 49°13' W 122°48'2 4.3
2018-Jun-21 19:30N 49°13' W 122°51'2 4.6
2018-Jun-21 19:00N 49°12' W 122°54'3 7.0
2018-Jun-21 18:30N 49°11' W 122°59'3 6.3
2018-Jun-21 17:58N 49°12' W 123°04'0 0.0
2018-Jun-21 17:28N 49°12' W 123°04'0 0.0
2018-Jun-21 16:58N 49°12' W 123°04'0 0.0
2018-Jun-21 16:28N 49°12' W 123°04'0 0.0
2018-Jun-21 15:58N 49°12' W 123°04'0 0.0
2018-Jun-21 15:28N 49°12' W 123°04'0 0.0
2018-Jun-21 14:58N 49°12' W 123°04'0 0.0
2018-Jun-21 14:28N 49°12' W 123°04'0 0.0
2018-Jun-21 13:58N 49°12' W 123°04'0 0.0
2018-Jun-21 13:28N 49°12' W 123°04'0 0.0
2018-Jun-21 12:58N 49°12' W 123°04'0 0.0
2018-Jun-21 12:28N 49°12' W 123°04'0 0.0
2018-Jun-21 11:58N 49°12' W 123°04'0 0.0
2018-Jun-21 11:25N 49°12' W 123°04'0 0.0
2018-Jun-21 10:55N 49°12' W 123°04'0 0.0
2018-Jun-21 10:28N 49°12' W 123°04'0 0.0
2018-Jun-21 09:58N 49°12' W 123°04'0 0.0
2018-Jun-21 09:25N 49°12' W 123°04'0 0.0
2018-Jun-21 08:52N 49°12' W 123°04'0 0.0
2018-Jun-21 08:25N 49°12' W 123°04'0 0.0
2018-Jun-21 07:58N 49°12' W 123°04'0 0.0
2018-Jun-21 07:28N 49°12' W 123°04'0 0.0
2018-Jun-21 06:58N 49°12' W 123°04'0 0.0
2018-Jun-21 06:28N 49°12' W 123°04'0 0.0
2018-Jun-21 05:58N 49°12' W 123°04'0 0.0
2018-Jun-21 05:28N 49°12' W 123°04'0 0.0
2018-Jun-21 04:58N 49°12' W 123°04'0 0.0
2018-Jun-21 04:28N 49°12' W 123°04'0 0.0
2018-Jun-21 03:58N 49°12' W 123°04'0 0.0
2018-Jun-21 03:28N 49°12' W 123°04'0 0.0
2018-Jun-21 02:46N 49°12' W 123°04'0 0.0
2018-Jun-21 02:28N 49°12' W 123°04'0 0.0
2018-Jun-21 01:58N 49°12' W 123°04'0 0.0
2018-Jun-21 01:28N 49°12' W 123°04'1 1.5
2018-Jun-21 00:59N 49°12' W 123°05'0 0.7
2018-Jun-21 00:28N 49°12' W 123°05'2 3.8
2018-Jun-20 23:58N 49°12' W 123°03'4 7.8
2018-Jun-20 23:30N 49°12' W 122°57'0 0.9
2018-Jun-20 23:00N 49°12' W 122°57'1 2.6
2018-Jun-20 22:29N 49°11' W 122°58'2 4.6
2018-Jun-20 22:00N 49°12' W 123°01'2 4.1
2018-Jun-20 21:30N 49°12' W 123°04'0 0.0
2018-Jun-20 20:59N 49°12' W 123°04'0 0.7
2018-Jun-20 20:30N 49°12' W 123°04'3 6.4
2018-Jun-20 20:00N 49°11' W 122°59'3 6.5
2018-Jun-20 19:30N 49°12' W 122°55'0 0.0
2018-Jun-20 18:57N 49°12' W 122°55'0 0.0
2018-Jun-20 18:27N 49°12' W 122°55'0 0.0
2018-Jun-20 18:00N 49°12' W 122°55'0 0.0
2018-Jun-20 17:30N 49°12' W 122°55'0 0.0
2018-Jun-20 17:00N 49°12' W 122°55'1 2.9
2018-Jun-20 16:30N 49°12' W 122°57'2 3.7
2018-Jun-20 15:59N 49°11' W 122°59'0 0.0
2018-Jun-20 15:30N 49°11' W 122°59'3 5.2
2018-Jun-20 15:00N 49°12' W 123°03'1 1.2
2018-Jun-20 14:28N 49°12' W 123°04'0 0.0
2018-Jun-20 13:58N 49°12' W 123°04'0 0.0
2018-Jun-20 13:24N 49°12' W 123°04'1 2.4
2018-Jun-20 12:58N 49°12' W 123°05'0 0.0
2018-Jun-20 12:28N 49°12' W 123°05'0 0.0
2018-Jun-20 11:58N 49°12' W 123°05'0 0.5
2018-Jun-20 11:30N 49°12' W 123°05'4 7.1
2018-Jun-20 11:00N 49°11' W 122°60'3 6.1
2018-Jun-20 10:30N 49°12' W 122°55'2 3.5
2018-Jun-20 09:59N 49°13' W 122°53'0 0.2
2018-Jun-20 09:29N 49°13' W 122°53'0 0.3
2018-Jun-20 09:00N 49°13' W 122°53'1 1.3
2018-Jun-20 08:30N 49°12' W 122°54'1 1.0
2018-Jun-20 07:44N 49°13' W 122°53'0 0.0
2018-Jun-20 07:26N 49°13' W 122°53'1 2.8
2018-Jun-20 07:00N 49°13' W 122°51'4 8.6
2018-Jun-20 06:30N 49°14' W 122°45'1 2.4
2018-Jun-20 06:00N 49°15' W 122°43'4 7.4
2018-Jun-20 05:30N 49°18' W 122°40'1 2.1
2018-Jun-20 04:56N 49°19' W 122°40'2 3.8
2018-Jun-20 04:30N 49°17' W 122°40'4 7.2
2018-Jun-20 03:58N 49°15' W 122°44'3 5.5
2018-Jun-20 03:29N 49°13' W 122°47'3 5.6
2018-Jun-20 03:00N 49°13' W 122°52'3 5.0
2018-Jun-20 02:30N 49°12' W 122°55'2 4.9
2018-Jun-20 02:00N 49°10' W 122°57'3 5.3
2018-Jun-20 01:30N 49°09' W 123°01'2 4.8
2018-Jun-20 01:00N 49°08' W 123°04'2 3.7
2018-Jun-20 00:30N 49°09' W 123°02'5 9.4
2018-Jun-20 00:00N 49°11' W 122°55'5 9.0
2018-Jun-19 23:28N 49°13' W 122°48'511.0
2018-Jun-19 22:58N 49°12' W 122°40'6 1.9
2018-Jun-19 20:03N 49°10' W 122°32'0 5.8
2018-Jun-19 19:59N 49°10' W 122°32'3 5.4
2018-Jun-19 19:30N 49°12' W 122°36'3 4.9
2018-Jun-19 18:58N 49°12' W 122°40'3 5.6
2018-Jun-19 18:30N 49°13' W 122°43'3 5.8
2018-Jun-19 18:00N 49°13' W 122°48'3 6.0
2018-Jun-19 17:30N 49°13' W 122°52'3 5.2
2018-Jun-19 17:00N 49°12' W 122°56'3 5.3
2018-Jun-19 16:30N 49°11' W 123°00'3 6.5
2018-Jun-19 16:00N 49°12' W 123°05'3 5.1
2018-Jun-19 15:26N 49°12' W 123°09'3 6.2
2018-Jun-19 15:00N 49°14' W 123°13'3 6.6
2018-Jun-19 14:29N 49°16' W 123°17'4 7.5
2018-Jun-19 13:59N 49°18' W 123°13'4 8.1
2018-Jun-19 13:30N 49°18' W 123°07'1 1.5
2018-Jun-19 12:58N 49°17' W 123°06'1 1.1
2018-Jun-19 12:30N 49°18' W 123°06'3 6.8
2018-Jun-19 12:00N 49°19' W 123°11'4 7.0
2018-Jun-19 11:30N 49°19' W 123°17'4 6.5
2018-Jun-19 10:58N 49°18' W 123°22'3 6.1
2018-Jun-19 10:29N 49°17' W 123°26'3 6.2
2018-Jun-19 10:00N 49°16' W 123°31'6 0.9
2018-Jun-19 03:06N 49°17' W 123°21'210.1
2018-Jun-19 02:52N 49°16' W 123°18'3 9.1
2018-Jun-19 02:29N 49°14' W 123°14'7 0.1
2018-Jun-17 05:15N 49°12' W 123°04'0 0.0
2018-Jun-17 05:01N 49°12' W 123°04'0 0.0
2018-Jun-17 04:30N 49°12' W 123°04'2 3.2
2018-Jun-17 04:00N 49°12' W 123°06'3 6.9
2018-Jun-17 03:30N 49°13' W 123°11'4 8.0
2018-Jun-17 02:58N 49°16' W 123°17'4 7.6
2018-Jun-17 02:30N 49°17' W 123°22'30 7.3
2018-Jun-16 22:21N 49°32' W 124°01'4 8.0
2018-Jun-16 21:50N 49°35' W 124°07'3 8.4
2018-Jun-16 21:28N 49°37' W 124°10'4 8.8
2018-Jun-16 21:00N 49°39' W 124°15'4 9.0
2018-Jun-16 20:30N 49°42' W 124°20'4 8.5
2018-Jun-16 20:01N 49°45' W 124°25'4 8.1
2018-Jun-16 19:31N 49°47' W 124°31'4 7.5
2018-Jun-16 19:00N 49°51' W 124°33'2 3.1
2018-Jun-16 18:31N 49°52' W 124°33'0 0.0
2018-Jun-16 18:01N 49°52' W 124°33'0 0.0
2018-Jun-16 17:31N 49°52' W 124°33'0 0.0
2018-Jun-16 17:00N 49°52' W 124°33'0 0.0
2018-Jun-16 16:31N 49°52' W 124°33'0 0.0
2018-Jun-16 15:59N 49°52' W 124°33'0 0.0
2018-Jun-16 15:28N 49°52' W 124°33'0 0.0
2018-Jun-16 14:59N 49°52' W 124°33'0 0.0
2018-Jun-16 14:31N 49°52' W 124°33'0 0.0
2018-Jun-16 14:00N 49°52' W 124°33'0 0.0
2018-Jun-16 13:28N 49°52' W 124°33'0 0.8
2018-Jun-16 13:00N 49°52' W 124°33'3 5.8
2018-Jun-16 12:30N 49°49' W 124°32'4 7.4
2018-Jun-16 12:00N 49°46' W 124°28'4 7.7
2018-Jun-16 11:31N 49°44' W 124°23'4 7.4
2018-Jun-16 11:00N 49°42' W 124°19'4 7.5
2018-Jun-16 10:30N 49°39' W 124°15'4 7.2
2018-Jun-16 09:58N 49°36' W 124°11'4 7.2
2018-Jun-16 09:27N 49°33' W 124°08'3 7.3
2018-Jun-16 09:00N 49°31' W 124°04'25 7.4
2018-Jun-16 05:37N 49°20' W 123°30'1 7.4
2018-Jun-16 05:30N 49°19' W 123°29'4 7.1
2018-Jun-16 04:57N 49°18' W 123°23'3 6.8
2018-Jun-16 04:30N 49°16' W 123°19'3 7.1
2018-Jun-16 04:00N 49°14' W 123°15'4 7.5
2018-Jun-16 03:30N 49°13' W 123°10'3 6.8
2018-Jun-16 03:00N 49°12' W 123°04'0 0.6
2018-Jun-16 02:30N 49°12' W 123°04'0 0.1
2018-Jun-16 02:00N 49°12' W 123°04'0 0.1
2018-Jun-16 01:30N 49°12' W 123°04'0 0.1
2018-Jun-16 01:00N 49°12' W 123°04'0 0.0
2018-Jun-16 00:30N 49°12' W 123°04'0 0.1
2018-Jun-16 00:00N 49°12' W 123°04'0 0.1
2018-Jun-15 23:30N 49°12' W 123°04'0 0.1
2018-Jun-15 23:00N 49°12' W 123°04'0 0.1
2018-Jun-15 22:30N 49°12' W 123°04'0 0.0
2018-Jun-15 22:00N 49°12' W 123°04'0 0.0
2018-Jun-15 21:30N 49°12' W 123°04'0 0.1
2018-Jun-15 21:00N 49°12' W 123°04'1 2.4
2018-Jun-15 20:30N 49°12' W 123°06'2 3.6
2018-Jun-15 20:00N 49°12' W 123°08'0 0.1
2018-Jun-15 19:14N 49°12' W 123°08'1 5.6
2018-Jun-15 18:59N 49°13' W 123°10'5 4.2
2018-Jun-15 17:48N 49°15' W 123°17'2 6.2
2018-Jun-15 17:29N 49°16' W 123°20'2 3.2
2018-Jun-15 17:00N 49°17' W 123°22'5 9.9
2018-Jun-15 16:29N 49°14' W 123°15'4 9.2
2018-Jun-15 16:00N 49°12' W 123°09'3 5.1
2018-Jun-15 15:30N 49°12' W 123°05'1 1.2
2018-Jun-15 15:00N 49°12' W 123°04'0 0.5
2018-Jun-15 14:30N 49°12' W 123°04'0 0.0
2018-Jun-15 14:01N 49°12' W 123°04'0 0.0
2018-Jun-15 13:31N 49°12' W 123°04'0 0.0
2018-Jun-15 13:00N 49°12' W 123°04'1 2.3
2018-Jun-15 12:29N 49°12' W 123°06'3 7.1
2018-Jun-15 12:00N 49°13' W 123°11'5 8.0
2018-Jun-15 11:25N 49°15' W 123°17'3 7.0
2018-Jun-15 10:58N 49°18' W 123°14'4 8.5
2018-Jun-15 10:30N 49°19' W 123°08'2 3.3
2018-Jun-15 10:00N 49°19' W 123°06'2 4.3
2018-Jun-15 09:30N 49°19' W 123°09'4 7.2
2018-Jun-15 09:00N 49°18' W 123°15'3 5.8
2018-Jun-15 08:30N 49°16' W 123°17'4 8.1
2018-Jun-15 07:57N 49°13' W 123°11'4 8.1
2018-Jun-15 07:31N 49°12' W 123°06'4 8.2
2018-Jun-15 07:00N 49°11' W 122°60'2 4.5
2018-Jun-15 06:30N 49°12' W 122°57'2 4.5
2018-Jun-15 06:00N 49°11' W 122°60'3 5.5
2018-Jun-15 05:30N 49°12' W 123°04'0 0.0
2018-Jun-15 05:00N 49°12' W 123°04'3 5.6
2018-Jun-15 04:30N 49°12' W 123°08'2 3.4
2018-Jun-15 04:00N 49°13' W 123°10'4 7.2
2018-Jun-15 03:29N 49°15' W 123°15'4 7.5
2018-Jun-15 03:00N 49°15' W 123°21'2 4.1
2018-Jun-15 02:30N 49°15' W 123°18'2 3.4
2018-Jun-15 01:54N 49°14' W 123°15'2 4.3
2018-Jun-15 01:30N 49°13' W 123°13'2 4.2
2018-Jun-15 01:00N 49°13' W 123°10'1 2.0
2018-Jun-15 00:30N 49°12' W 123°08'2 3.4
2018-Jun-15 00:00N 49°13' W 123°11'5 9.0
2018-Jun-14 23:28N 49°15' W 123°17'510.1
2018-Jun-14 23:00N 49°11' W 123°19'5 9.4
2018-Jun-14 22:30N 49°06' W 123°20'510.0
2018-Jun-14 21:58N 49°01' W 123°19'7 9.5
2018-Jun-14 21:15N 48°54' W 123°18'210.0
2018-Jun-14 21:00N 48°52' W 123°19'4 7.6
2018-Jun-14 20:30N 48°48' W 123°21'5 9.0
2018-Jun-14 20:00N 48°43' W 123°21'4 8.5
2018-Jun-14 19:30N 48°39' W 123°21'4 7.4
2018-Jun-14 19:00N 48°36' W 123°19'4 8.7
2018-Jun-14 18:30N 48°32' W 123°17'4 8.1
2018-Jun-14 18:00N 48°28' W 123°15'4 7.6
2018-Jun-14 17:30N 48°24' W 123°17'6 1.7
2018-Jun-14 13:49N 48°25' W 123°27'1 1.9
2018-Jun-14 13:30N 48°25' W 123°27'2 3.4
2018-Jun-14 13:00N 48°24' W 123°25'2 4.1
2018-Jun-14 12:31N 48°24' W 123°22'2 4.2
2018-Jun-14 12:00N 48°23' W 123°19'2 3.8
2018-Jun-14 11:30N 48°24' W 123°16'2 3.9
2018-Jun-14 11:00N 48°25' W 123°14'2 3.9
2018-Jun-14 10:30N 48°27' W 123°13'3 5.3
2018-Jun-14 10:00N 48°29' W 123°14'3 5.3
2018-Jun-14 09:30N 48°32' W 123°16'3 5.1
2018-Jun-14 09:00N 48°34' W 123°18'3 5.2
2018-Jun-14 08:30N 48°36' W 123°20'3 5.4
2018-Jun-14 08:00N 48°39' W 123°22'3 6.0
2018-Jun-14 07:30N 48°42' W 123°21'3 6.7
2018-Jun-14 07:00N 48°45' W 123°21'4 7.4
2018-Jun-14 06:29N 48°49' W 123°21'3 6.6
2018-Jun-14 06:00N 48°52' W 123°19'6 7.7
2018-Jun-14 05:16N 48°57' W 123°18'3 8.9
2018-Jun-14 04:53N 49°01' W 123°19'3 8.8
2018-Jun-14 04:29N 49°04' W 123°19'4 7.8
2018-Jun-14 04:00N 49°07' W 123°16'4 8.7
2018-Jun-14 03:30N 49°07' W 123°09'4 8.0
2018-Jun-14 03:00N 49°08' W 123°04'4 7.9
2018-Jun-14 02:30N 49°09' W 122°58'3 5.6
2018-Jun-14 02:00N 49°12' W 122°56'1 1.0
2018-Jun-14 01:30N 49°12' W 122°57'0 0.0
2018-Jun-14 01:00N 49°12' W 122°57'0 0.1
2018-Jun-14 00:30N 49°12' W 122°57'0 0.1
2018-Jun-14 00:00N 49°12' W 122°56'0 0.1
2018-Jun-13 23:30N 49°12' W 122°57'0 0.2
2018-Jun-13 23:00N 49°12' W 122°56'0 0.2
2018-Jun-13 22:30N 49°12' W 122°57'0 0.0
2018-Jun-13 22:00N 49°12' W 122°57'0 0.1
2018-Jun-13 21:30N 49°12' W 122°57'0 0.4
2018-Jun-13 21:00N 49°12' W 122°57'0 0.5
2018-Jun-13 20:30N 49°12' W 122°56'0 0.2
2018-Jun-13 20:00N 49°12' W 122°57'0 0.2
2018-Jun-13 19:30N 49°12' W 122°56'0 0.0
2018-Jun-13 19:00N 49°12' W 122°56'0 0.0
2018-Jun-13 18:28N 49°12' W 122°56'0 0.0
2018-Jun-13 18:00N 49°12' W 122°56'0 0.0
2018-Jun-13 17:30N 49°12' W 122°56'0 0.0
2018-Jun-13 17:00N 49°12' W 122°56'1 2.1
2018-Jun-13 16:30N 49°12' W 122°55'0 0.7
2018-Jun-13 16:00N 49°12' W 122°54'0 0.0
2018-Jun-13 15:30N 49°12' W 122°54'0 0.0
2018-Jun-13 15:00N 49°12' W 122°54'0 0.0
2018-Jun-13 14:30N 49°12' W 122°54'0 0.0
2018-Jun-13 14:00N 49°12' W 122°54'0 0.0
2018-Jun-13 13:30N 49°12' W 122°54'0 0.0
2018-Jun-13 13:00N 49°12' W 122°54'0 0.0
2018-Jun-13 12:30N 49°12' W 122°54'0 0.0
2018-Jun-13 12:00N 49°12' W 122°54'0 0.0
2018-Jun-13 11:30N 49°12' W 122°54'0 0.0
2018-Jun-13 11:00N 49°12' W 122°54'0 0.0
2018-Jun-13 10:30N 49°12' W 122°54'0 0.0
2018-Jun-13 10:00N 49°12' W 122°54'0 0.0
2018-Jun-13 09:30N 49°12' W 122°54'  

Dump ship's entire track history